Time;durP1;ratioP1;P1;durP2;ratioP2;P2;SDS_P1;SDS_P2;PMS_P1;PMS_P2;Temp;Humidity;BMP_temperature;BMP_pressure;BME280_temperature;BME280_humidity;BME280_pressure;Samples;Min_cycle;Max_cycle;Signal;HPM_P1;HPM_P2
2023/08/29 00:00:51;;;;;;;1.10;1.10;;;;;12.90;95396.00;;;;5135395;27;20189;-61
2023/08/29 00:03:18;;;;;;;1.33;1.23;;;;;12.90;95410.00;;;;5134974;27;20216;-61
2023/08/29 00:05:46;;;;;;;15.73;1.30;;;;;12.80;95409.00;;;;5134862;27;20197;-61
2023/08/29 00:08:13;;;;;;;0.73;0.73;;;;;12.90;95418.00;;;;5135504;27;20186;-61
2023/08/29 00:10:41;;;;;;;0.67;0.67;;;;;12.90;95413.00;;;;5135196;27;20186;-60
2023/08/29 00:13:08;;;;;;;1.17;1.17;;;;;13.00;95400.00;;;;5134876;27;20194;-60
2023/08/29 00:15:35;;;;;;;0.83;0.83;;;;;13.00;95402.00;;;;5135393;27;20195;-60
2023/08/29 00:18:04;;;;;;;0.93;0.93;;;;;13.00;95401.00;;;;5134782;27;20214;-60
2023/08/29 00:20:32;;;;;;;1.20;1.20;;;;;13.00;95408.00;;;;5135416;27;20198;-61
2023/08/29 00:23:00;;;;;;;1.00;1.00;;;;;13.00;95411.00;;;;5134705;27;20672;-61
2023/08/29 00:25:27;;;;;;;1.33;1.33;;;;;12.90;95401.00;;;;5133342;27;20196;-61
2023/08/29 00:27:54;;;;;;;1.23;1.23;;;;;12.90;95397.00;;;;5134600;27;20212;-61
2023/08/29 00:30:22;;;;;;;0.70;0.70;;;;;13.00;95394.00;;;;5134552;27;20193;-61
2023/08/29 00:32:51;;;;;;;1.23;1.23;;;;;12.80;95383.00;;;;5134497;27;20201;-61
2023/08/29 00:35:20;;;;;;;1.63;1.53;;;;;12.70;95378.00;;;;5134533;27;20197;-61
2023/08/29 00:37:48;;;;;;;1.17;1.17;;;;;12.70;95389.00;;;;5134384;27;20220;-61
2023/08/29 00:40:16;;;;;;;0.60;0.60;;;;;12.70;95393.00;;;;5134493;27;20193;-60
2023/08/29 00:42:43;;;;;;;1.17;1.17;;;;;12.60;95399.00;;;;5134441;27;20292;-60
2023/08/29 00:45:11;;;;;;;0.70;0.70;;;;;12.70;95405.00;;;;5134038;27;20185;-60
2023/08/29 00:47:39;;;;;;;1.10;1.10;;;;;12.70;95407.00;;;;5134088;27;20240;-60
2023/08/29 00:50:08;;;;;;;1.00;1.00;;;;;12.80;95409.00;;;;5134280;27;20189;-60
2023/08/29 00:52:37;;;;;;;1.20;1.20;;;;;12.80;95403.00;;;;5134231;27;20204;-60
2023/08/29 00:55:05;;;;;;;1.23;1.23;;;;;12.70;95405.00;;;;5134055;27;20196;-60
2023/08/29 00:57:32;;;;;;;1.10;1.10;;;;;12.80;95407.00;;;;5134044;27;20266;-60
2023/08/29 01:00:00;;;;;;;1.27;1.27;;;;;12.80;95396.00;;;;5134686;27;20185;-60
2023/08/29 01:02:27;;;;;;;0.93;0.93;;;;;12.80;95404.00;;;;5134032;27;20189;-60
2023/08/29 01:04:55;;;;;;;1.50;1.40;;;;;12.90;95405.00;;;;5133982;27;20209;-61
2023/08/29 01:07:22;;;;;;;0.90;0.90;;;;;12.90;95405.00;;;;5134005;27;20213;-60
2023/08/29 01:09:51;;;;;;;1.00;1.00;;;;;12.90;95401.00;;;;5133986;27;20656;-60
2023/08/29 01:12:19;;;;;;;0.97;0.97;;;;;12.90;95405.00;;;;5133855;27;20272;-60
2023/08/29 01:14:52;;;;;;;0.87;0.87;;;;;12.90;95411.00;;;;5133847;27;20185;-60
2023/08/29 01:17:28;;;;;;;0.97;0.97;;;;;12.90;95415.00;;;;5133851;27;20253;-60
2023/08/29 01:19:57;;;;;;;1.20;1.13;;;;;12.80;95405.00;;;;5134236;28;20238;-60
2023/08/29 01:22:29;;;;;;;0.73;0.73;;;;;12.80;95414.00;;;;5133755;28;20241;-61
2023/08/29 01:25:09;;;;;;;1.57;1.47;;;;;12.80;95410.00;;;;5134077;28;20256;-61
2023/08/29 01:27:38;;;;;;;0.80;0.80;;;;;12.80;95411.00;;;;5133903;28;20280;-61
2023/08/29 01:30:07;;;;;;;0.80;0.80;;;;;12.80;95417.00;;;;5133764;28;20264;-61
2023/08/29 01:32:35;;;;;;;1.27;1.27;;;;;12.80;95405.00;;;;5133751;28;20186;-60
2023/08/29 01:35:03;;;;;;;0.93;0.93;;;;;12.80;95402.00;;;;5133639;28;20193;-60
2023/08/29 01:37:30;;;;;;;1.60;1.43;;;;;12.80;95409.00;;;;5133550;28;20209;-60
2023/08/29 01:39:58;;;;;;;0.80;0.80;;;;;12.80;95415.00;;;;5134136;28;20190;-60
2023/08/29 01:42:25;;;;;;;1.00;1.00;;;;;12.80;95413.00;;;;5133545;28;20268;-60
2023/08/29 01:44:54;;;;;;;0.80;0.80;;;;;12.80;95408.00;;;;5133911;28;20556;-60
2023/08/29 01:47:21;;;;;;;1.00;1.00;;;;;12.80;95411.00;;;;5133535;28;20209;-60
2023/08/29 01:49:49;;;;;;;1.33;1.23;;;;;12.80;95416.00;;;;5133762;28;20198;-60
2023/08/29 01:52:17;;;;;;;1.30;1.30;;;;;12.80;95410.00;;;;5133994;28;20196;-60
2023/08/29 01:54:44;;;;;;;1.20;1.20;;;;;12.80;95407.00;;;;5133433;28;20185;-60
2023/08/29 01:57:14;;;;;;;1.20;1.20;;;;;12.80;95404.00;;;;5134642;27;20209;-60
2023/08/29 01:59:43;;;;;;;0.90;0.90;;;;;12.70;95408.00;;;;5137937;27;20231;-60
2023/08/29 02:02:14;;;;;;;1.33;1.23;;;;;12.70;95412.00;;;;5137738;27;20644;-60
2023/08/29 02:04:41;;;;;;;0.80;0.80;;;;;12.70;95404.00;;;;5137228;27;20575;-60
2023/08/29 02:07:08;;;;;;;5.20;1.47;;;;;12.70;95409.00;;;;5137294;27;20232;-61
2023/08/29 02:09:36;;;;;;;1.33;1.23;;;;;12.60;95403.00;;;;5137432;27;20190;-60
2023/08/29 02:12:04;;;;;;;0.73;0.73;;;;;12.60;95405.00;;;;5137366;27;20597;-60
2023/08/29 02:14:32;;;;;;;1.53;1.43;;;;;12.60;95403.00;;;;5137193;27;20245;-60
2023/08/29 02:17:00;;;;;;;1.53;1.43;;;;;12.60;95404.00;;;;5137179;27;20266;-60
2023/08/29 02:19:29;;;;;;;1.33;1.23;;;;;12.60;95391.00;;;;5137116;27;20202;-60
2023/08/29 02:21:56;;;;;;;1.67;1.57;;;;;12.60;95393.00;;;;5137058;27;20269;-60
2023/08/29 02:24:27;;;;;;;1.20;1.10;;;;;12.60;95391.00;;;;5137292;27;20672;-60
2023/08/29 02:26:55;;;;;;;1.57;1.47;;;;;12.60;95382.00;;;;5136950;27;20262;-61
2023/08/29 02:29:22;;;;;;;1.67;1.57;;;;;12.60;95378.00;;;;5136950;27;20231;-61
2023/08/29 02:31:50;;;;;;;1.17;1.17;;;;;12.70;95373.00;;;;5137135;27;20186;-60
2023/08/29 02:34:17;;;;;;;1.13;1.13;;;;;12.70;95382.00;;;;5136949;27;20232;-60
2023/08/29 02:36:46;;;;;;;1.57;1.47;;;;;12.70;95381.00;;;;5136590;27;20227;-60
2023/08/29 02:39:13;;;;;;;1.60;1.50;;;;;12.70;95375.00;;;;5136735;27;20664;-60
2023/08/29 02:41:41;;;;;;;1.00;1.00;;;;;12.70;95375.00;;;;5136760;27;20186;-60
2023/08/29 02:44:08;;;;;;;1.63;1.53;;;;;12.80;95374.00;;;;5136808;27;20545;-60
2023/08/29 02:46:35;;;;;;;1.13;1.03;;;;;12.80;95374.00;;;;5136637;27;20213;-60
2023/08/29 02:49:03;;;;;;;2.33;1.70;;;;;12.90;95381.00;;;;5136788;27;20522;-60
2023/08/29 02:51:30;;;;;;;2.33;1.27;;;;;12.80;95380.00;;;;5136447;27;20292;-60
2023/08/29 02:53:59;;;;;;;1.50;1.40;;;;;12.80;95378.00;;;;5136466;27;20189;-60
2023/08/29 02:56:26;;;;;;;2.17;2.00;;;;;12.80;95376.00;;;;5136301;27;20213;-60
2023/08/29 02:58:54;;;;;;;1.60;1.50;;;;;12.80;95372.00;;;;5136533;27;20201;-60
2023/08/29 03:01:22;;;;;;;1.43;1.33;;;;;12.90;95368.00;;;;5136372;27;20271;-60
2023/08/29 03:03:49;;;;;;;2.13;1.93;;;;;12.90;95370.00;;;;5136030;27;20266;-60
2023/08/29 03:06:17;;;;;;;1.50;1.40;;;;;12.80;95366.00;;;;5136627;27;20217;-60
2023/08/29 03:08:45;;;;;;;0.90;0.90;;;;;12.80;95368.00;;;;5135533;27;20194;-60
2023/08/29 03:11:13;;;;;;;1.00;1.00;;;;;12.70;95367.00;;;;5134774;27;20207;-60
2023/08/29 03:13:41;;;;;;;1.20;1.20;;;;;12.70;95358.00;;;;5136015;27;20197;-60
2023/08/29 03:16:14;;;;;;;1.27;1.17;;;;;12.80;95367.00;;;;5135971;27;20209;-60
2023/08/29 03:18:42;;;;;;;4.27;1.43;;;;;12.80;95363.00;;;;5135908;27;20186;-60
2023/08/29 03:21:09;;;;;;;1.07;1.07;;;;;12.70;95356.00;;;;5137094;27;20194;-60
2023/08/29 03:23:37;;;;;;;1.47;1.37;;;;;12.70;95351.00;;;;5135844;27;20621;-60
2023/08/29 03:26:10;;;;;;;1.17;1.17;;;;;12.70;95359.00;;;;5136073;27;20209;-60
2023/08/29 03:28:38;;;;;;;0.93;0.93;;;;;12.60;95354.00;;;;5136175;27;20184;-60
2023/08/29 03:31:10;;;;;;;1.10;1.10;;;;;12.70;95368.00;;;;5135729;27;20553;-60
2023/08/29 03:33:38;;;;;;;1.50;1.40;;;;;12.80;95364.00;;;;5135780;27;20185;-60
2023/08/29 03:36:05;;;;;;;1.10;1.00;;;;;12.70;95355.00;;;;5135801;27;20763;-62
2023/08/29 03:38:36;;;;;;;1.83;1.10;;;;;12.60;95350.00;;;;5135700;27;20185;-61
2023/08/29 03:41:04;;;;;;;1.20;1.20;;;;;12.80;95352.00;;;;5135586;27;20216;-60
2023/08/29 03:43:33;;;;;;;1.73;1.63;;;;;12.70;95347.00;;;;5135913;27;20543;-60
2023/08/29 03:46:03;;;;;;;1.07;1.07;;;;;12.60;95356.00;;;;5136097;27;20547;-60
2023/08/29 03:48:31;;;;;;;1.73;1.57;;;;;12.70;95350.00;;;;5135276;27;20221;-60
2023/08/29 03:50:59;;;;;;;1.53;1.43;;;;;12.70;95345.00;;;;5135290;27;20246;-60
2023/08/29 03:53:26;;;;;;;1.00;1.00;;;;;12.60;95349.00;;;;5135465;27;20193;-60
2023/08/29 03:55:54;;;;;;;1.00;1.00;;;;;12.60;95350.00;;;;5135149;27;20660;-60
2023/08/29 03:58:23;;;;;;;3.17;1.10;;;;;12.60;95363.00;;;;5133933;27;20201;-61
2023/08/29 04:00:50;;;;;;;1.17;0.97;;;;;12.60;95352.00;;;;5135179;27;20197;-61
2023/08/29 04:03:19;;;;;;;8.10;1.50;;;;;12.60;95346.00;;;;5135031;27;20269;-61
2023/08/29 04:05:47;;;;;;;1.33;1.33;;;;;12.70;95340.00;;;;5135036;27;20189;-60
2023/08/29 04:08:15;;;;;;;2.43;2.23;;;;;12.70;95349.00;;;;5135095;27;20218;-60
2023/08/29 04:10:43;;;;;;;1.23;1.23;;;;;12.60;95339.00;;;;5135015;27;20189;-60
2023/08/29 04:13:11;;;;;;;1.20;1.10;;;;;12.60;95349.00;;;;5134917;27;20537;-60
2023/08/29 04:15:38;;;;;;;1.37;1.37;;;;;12.60;95345.00;;;;5135207;27;20544;-60
2023/08/29 04:18:07;;;;;;;2.07;1.97;;;;;12.60;95344.00;;;;5133568;27;20197;-60
2023/08/29 04:20:37;;;;;;;1.13;1.13;;;;;12.60;95349.00;;;;5133774;27;20187;-60
2023/08/29 04:23:06;;;;;;;2.73;1.50;;;;;12.60;95350.00;;;;5134639;27;20190;-61
2023/08/29 04:25:36;;;;;;;1.90;1.80;;;;;12.60;95348.00;;;;5134595;27;20265;-61
2023/08/29 04:28:04;;;;;;;1.50;1.43;;;;;12.60;95352.00;;;;5134494;27;20255;-61
2023/08/29 04:30:31;;;;;;;2.00;1.90;;;;;12.80;95347.00;;;;5134783;27;20190;-61
2023/08/29 04:32:59;;;;;;;1.57;1.53;;;;;12.90;95343.00;;;;5134543;27;20190;-61
2023/08/29 04:35:26;;;;;;;1.30;1.27;;;;;12.90;95357.00;;;;5134502;27;20624;-60
2023/08/29 04:37:55;;;;;;;1.47;1.40;;;;;13.00;95346.00;;;;5134398;27;20707;-60
2023/08/29 04:40:23;;;;;;;2.33;2.23;;;;;13.00;95342.00;;;;5134713;27;20198;-60
2023/08/29 04:42:52;;;;;;;2.20;1.83;;;;;13.10;95334.00;;;;5134377;27;20246;-60
2023/08/29 04:45:20;;;;;;;1.80;1.70;;;;;13.20;95340.00;;;;5134733;27;20213;-60
2023/08/29 04:47:48;;;;;;;1.93;1.83;;;;;13.20;95346.00;;;;5134241;27;20205;-60
2023/08/29 04:50:16;;;;;;;2.40;2.20;;;;;13.20;95348.00;;;;5134193;27;20185;-60
2023/08/29 04:52:43;;;;;;;2.10;1.60;;;;;13.30;95350.00;;;;5134246;27;20193;-60
2023/08/29 04:55:12;;;;;;;1.57;1.53;;;;;13.30;95343.00;;;;5134192;27;20238;-60
2023/08/29 04:57:40;;;;;;;1.43;1.33;;;;;13.20;95348.00;;;;5134236;27;20244;-61
2023/08/29 05:00:09;;;;;;;1.80;1.70;;;;;13.10;95343.00;;;;5134087;27;20657;-60
2023/08/29 05:02:38;;;;;;;1.80;1.70;;;;;13.10;95342.00;;;;5134624;27;20281;-60
2023/08/29 05:05:06;;;;;;;1.63;1.53;;;;;13.10;95335.00;;;;5133940;27;20221;-61
2023/08/29 05:07:34;;;;;;;2.63;2.43;;;;;13.00;95332.00;;;;5134186;27;20229;-61
2023/08/29 05:10:01;;;;;;;10.20;5.77;;;;;13.00;95332.00;;;;5133915;27;20573;-61
2023/08/29 05:12:30;;;;;;;3.30;3.00;;;;;13.00;95333.00;;;;5133978;27;20194;-61
2023/08/29 05:14:57;;;;;;;2.70;2.50;;;;;13.00;95336.00;;;;5133986;27;20189;-60
2023/08/29 05:17:25;;;;;;;1.77;1.67;;;;;13.00;95344.00;;;;5132604;28;20217;-60
2023/08/29 05:19:52;;;;;;;1.93;1.83;;;;;12.80;95340.00;;;;5133783;28;20554;-60
2023/08/29 05:22:20;;;;;;;28.17;1.43;;;;;12.80;95335.00;;;;5133756;28;20198;-60
2023/08/29 05:24:47;;;;;;;1.33;1.33;;;;;12.90;95338.00;;;;5134380;28;20209;-60
2023/08/29 05:27:15;;;;;;;1.17;1.17;;;;;12.90;95339.00;;;;5133995;28;20210;-60
2023/08/29 05:29:44;;;;;;;2.57;2.43;;;;;12.90;95340.00;;;;5133599;28;20197;-60
2023/08/29 05:32:11;;;;;;;1.97;1.87;;;;;12.90;95338.00;;;;5134914;27;20193;-60
2023/08/29 05:34:39;;;;;;;3.57;1.93;;;;;13.00;95340.00;;;;5138449;27;20187;-60
2023/08/29 05:37:06;;;;;;;1.47;1.37;;;;;13.00;95343.00;;;;5138087;27;20209;-60
2023/08/29 05:39:34;;;;;;;2.00;1.90;;;;;13.10;95340.00;;;;5137993;27;20204;-60
2023/08/29 05:42:01;;;;;;;10.47;7.93;;;;;13.10;95342.00;;;;5137898;27;20725;-60
2023/08/29 05:44:29;;;;;;;4.23;3.83;;;;;13.10;95339.00;;;;5137824;27;20217;-60
2023/08/29 05:46:57;;;;;;;1.87;1.77;;;;;13.10;95343.00;;;;5138029;27;20236;-60
2023/08/29 05:49:25;;;;;;;1.93;1.83;;;;;13.00;95344.00;;;;5137802;27;20192;-60
2023/08/29 05:51:52;;;;;;;5.37;2.93;;;;;13.10;95348.00;;;;5137820;27;20246;-60
2023/08/29 05:54:20;;;;;;;2.83;2.13;;;;;13.10;95340.00;;;;5137664;27;20189;-60
2023/08/29 05:56:48;;;;;;;1.40;1.33;;;;;13.20;95345.00;;;;5136420;27;20216;-60
2023/08/29 05:59:16;;;;;;;2.63;1.90;;;;;13.20;95349.00;;;;5137765;27;20200;-60
2023/08/29 06:01:43;;;;;;;2.40;2.30;;;;;13.30;95354.00;;;;5137532;27;20721;-61
2023/08/29 06:04:12;;;;;;;1.20;1.20;;;;;13.30;95342.00;;;;5137324;27;20311;-61
2023/08/29 06:06:40;;;;;;;1.37;1.20;;;;;13.20;95351.00;;;;5137758;27;20213;-61
2023/08/29 06:09:08;;;;;;;5.03;2.67;;;;;13.20;95351.00;;;;5137601;27;20191;-61
2023/08/29 06:11:35;;;;;;;1.73;1.63;;;;;13.40;95350.00;;;;5138411;27;20228;-60
2023/08/29 06:14:03;;;;;;;1.37;1.37;;;;;13.50;95353.00;;;;5137521;27;20217;-60
2023/08/29 06:16:30;;;;;;;2.40;2.30;;;;;13.60;95346.00;;;;5137507;27;20209;-60
2023/08/29 06:18:58;;;;;;;3.93;3.03;;;;;13.60;95350.00;;;;5137230;27;20197;-60
2023/08/29 06:21:27;;;;;;;1.90;1.80;;;;;13.60;95349.00;;;;5137225;27;20189;-60
2023/08/29 06:23:54;;;;;;;1.93;1.83;;;;;13.70;95350.00;;;;5137227;27;20710;-60
2023/08/29 06:26:22;;;;;;;2.30;2.17;;;;;13.70;95349.00;;;;5137499;27;20217;-60
2023/08/29 06:28:49;;;;;;;2.10;1.90;;;;;13.60;95352.00;;;;5134376;27;20292;-60
2023/08/29 06:31:17;;;;;;;1.77;1.67;;;;;13.60;95358.00;;;;5133833;27;20193;-60
2023/08/29 06:33:44;;;;;;;1.20;1.20;;;;;13.60;95334.00;;;;5135506;27;20224;-62
2023/08/29 06:36:12;;;;;;;2.00;1.53;;;;;13.60;95357.00;;;;5135077;27;20213;-62
2023/08/29 06:38:42;;;;;;;1.97;1.77;;;;;13.60;95367.00;;;;5135066;27;20654;-62
2023/08/29 06:41:09;;;;;;;1.87;1.77;;;;;13.70;95379.00;;;;5135189;27;20196;-60
2023/08/29 06:43:36;;;;;;;1.70;1.60;;;;;13.60;95382.00;;;;5131734;27;20193;-60
2023/08/29 06:46:04;;;;;;;1.77;1.67;;;;;13.70;95375.00;;;;5133287;27;20217;-60
2023/08/29 06:48:31;;;;;;;1.67;1.57;;;;;13.60;95373.00;;;;5134798;27;20250;-60
2023/08/29 06:50:59;;;;;;;1.83;1.70;;;;;13.70;95383.00;;;;5135116;27;20652;-60
2023/08/29 06:53:26;;;;;;;1.77;1.67;;;;;13.70;95382.00;;;;5134468;27;20193;-60
2023/08/29 06:55:56;;;;;;;2.33;2.13;;;;;13.70;95384.00;;;;5133678;27;20644;-60
2023/08/29 06:58:23;;;;;;;1.00;1.00;;;;;13.60;95385.00;;;;5134387;27;20201;-60
2023/08/29 07:00:51;;;;;;;1.00;1.00;;;;;13.40;95382.00;;;;5135206;27;20212;-60
2023/08/29 07:03:18;;;;;;;1.50;1.50;;;;;13.40;95387.00;;;;5134454;27;20198;-60
2023/08/29 07:05:45;;;;;;;0.80;0.80;;;;;13.40;95386.00;;;;5134276;27;20213;-60
2023/08/29 07:08:13;;;;;;;1.60;1.50;;;;;13.50;95388.00;;;;5133359;27;20201;-60
2023/08/29 07:10:40;;;;;;;6.70;1.40;;;;;13.60;95391.00;;;;5134429;27;20687;-60
2023/08/29 07:13:09;;;;;;;1.80;1.50;;;;;13.60;95392.00;;;;5134180;27;20196;-60
2023/08/29 07:15:36;;;;;;;1.10;1.10;;;;;13.60;95389.00;;;;5134603;27;20665;-60
2023/08/29 07:18:05;;;;;;;4.30;2.20;;;;;13.70;95400.00;;;;5133028;27;20270;-60
2023/08/29 07:20:33;;;;;;;1.67;1.60;;;;;13.70;95404.00;;;;5134213;27;20276;-60
2023/08/29 07:23:01;;;;;;;2.10;2.00;;;;;13.90;95403.00;;;;5134429;27;20217;-60
2023/08/29 07:25:39;;;;;;;1.40;1.40;;;;;13.90;95406.00;;;;5134066;27;20213;-60
2023/08/29 07:28:10;;;;;;;1.80;1.70;;;;;13.80;95404.00;;;;5133892;27;20533;-60
2023/08/29 07:30:44;;;;;;;1.43;1.43;;;;;14.10;95407.00;;;;5133374;27;20193;-60
2023/08/29 07:33:11;;;;;;;1.90;1.80;;;;;14.30;95404.00;;;;5134201;27;20231;-60
2023/08/29 07:35:39;;;;;;;2.03;1.93;;;;;14.30;95402.00;;;;5133854;27;20190;-60
2023/08/29 07:38:07;;;;;;;1.53;1.50;;;;;14.40;95406.00;;;;5133806;27;20216;-60
2023/08/29 07:40:35;;;;;;;2.53;1.57;;;;;14.50;95409.00;;;;5132723;27;20212;-61
2023/08/29 07:43:04;;;;;;;1.53;1.50;;;;;14.60;95413.00;;;;5133712;27;20210;-62
2023/08/29 07:45:34;;;;;;;2.47;2.27;;;;;14.50;95411.00;;;;5134184;27;20213;-61
2023/08/29 07:48:01;;;;;;;1.87;1.77;;;;;14.60;95412.00;;;;5128744;27;20213;-61
2023/08/29 07:50:30;;;;;;;1.50;1.40;;;;;14.70;95410.00;;;;5133944;27;20201;-61
2023/08/29 07:52:57;;;;;;;1.33;1.33;;;;;14.70;95417.00;;;;5133510;27;20200;-61
2023/08/29 07:55:25;;;;;;;1.43;1.37;;;;;14.80;95412.00;;;;5133523;27;20713;-61
2023/08/29 07:57:52;;;;;;;8.00;2.17;;;;;14.80;95411.00;;;;5133391;27;20220;-61
2023/08/29 08:00:21;;;;;;;1.40;1.30;;;;;14.70;95420.00;;;;5132344;27;20197;-61
2023/08/29 08:02:50;;;;;;;2.23;2.03;;;;;14.70;95421.00;;;;5133219;27;20246;-61
2023/08/29 08:05:18;;;;;;;1.50;1.40;;;;;14.70;95420.00;;;;5131890;27;20213;-61
2023/08/29 08:07:46;;;;;;;2.03;1.93;;;;;14.50;95427.00;;;;5133192;27;20223;-61
2023/08/29 08:10:15;;;;;;;7.27;1.43;;;;;14.60;95425.00;;;;5132983;27;20193;-61
2023/08/29 08:12:43;;;;;;;0.90;0.90;;;;;14.70;95423.00;;;;5133445;27;20651;-60
2023/08/29 08:15:11;;;;;;;1.53;1.43;;;;;14.70;95427.00;;;;5132792;27;20273;-61
2023/08/29 08:17:39;;;;;;;2.10;1.40;;;;;14.60;95436.00;;;;5133466;27;20587;-61
2023/08/29 08:20:09;;;;;;;2.30;2.00;;;;;14.50;95433.00;;;;5132936;27;20193;-61
2023/08/29 08:22:38;;;;;;;1.67;1.57;;;;;14.50;95444.00;;;;5132975;27;20194;-61
2023/08/29 08:25:06;;;;;;;2.07;1.93;;;;;14.50;95437.00;;;;5132907;27;20220;-61
2023/08/29 08:27:34;;;;;;;1.67;1.57;;;;;14.50;95442.00;;;;5132670;27;20213;-61
2023/08/29 08:30:01;;;;;;;1.90;1.77;;;;;14.50;95446.00;;;;5132672;27;20276;-61
2023/08/29 08:32:29;;;;;;;2.77;1.97;;;;;14.60;95452.00;;;;5132730;27;20250;-61
2023/08/29 08:34:56;;;;;;;1.53;1.47;;;;;14.60;95453.00;;;;5132855;27;20200;-61
2023/08/29 08:37:25;;;;;;;1.70;1.60;;;;;14.40;95452.00;;;;5132681;27;20559;-61
2023/08/29 08:39:52;;;;;;;1.13;1.13;;;;;14.30;95450.00;;;;5133033;27;20209;-61
2023/08/29 08:42:20;;;;;;;1.90;1.80;;;;;14.40;95458.00;;;;5132891;27;20633;-61
2023/08/29 08:44:48;;;;;;;1.70;1.57;;;;;14.30;95458.00;;;;5132574;27;20197;-62
2023/08/29 08:47:16;;;;;;;1.57;1.47;;;;;14.30;95460.00;;;;5132462;27;20704;-61
2023/08/29 08:49:43;;;;;;;1.37;1.37;;;;;14.40;95453.00;;;;5132574;27;20205;-61
2023/08/29 08:52:12;;;;;;;1.20;1.13;;;;;14.50;95458.00;;;;5132536;27;20197;-61
2023/08/29 08:54:41;;;;;;;1.27;1.27;;;;;14.50;95460.00;;;;5132343;27;20197;-61
2023/08/29 08:57:11;;;;;;;1.37;1.27;;;;;14.70;95459.00;;;;5132380;27;20227;-61
2023/08/29 08:59:39;;;;;;;1.60;1.50;;;;;14.80;95450.00;;;;5132627;27;20224;-61
2023/08/29 09:02:09;;;;;;;2.03;1.93;;;;;14.90;95449.00;;;;5132345;27;20259;-61
2023/08/29 09:04:37;;;;;;;2.67;2.47;;;;;15.00;95452.00;;;;5132153;27;20220;-61
2023/08/29 09:07:08;;;;;;;2.10;1.70;;;;;15.10;95459.00;;;;5131765;27;20707;-61
2023/08/29 09:09:35;;;;;;;1.00;1.00;;;;;15.20;95453.00;;;;5132604;27;20597;-61
2023/08/29 09:12:04;;;;;;;1.30;1.30;;;;;15.30;95458.00;;;;5131895;27;20211;-61
2023/08/29 09:14:33;;;;;;;1.70;1.60;;;;;15.40;95463.00;;;;5132585;27;20559;-61
2023/08/29 09:17:01;;;;;;;1.43;1.43;;;;;15.30;95462.00;;;;5131809;27;20245;-61
2023/08/29 09:19:33;;;;;;;1.80;1.70;;;;;15.00;95463.00;;;;5133408;27;20201;-61
2023/08/29 09:22:00;;;;;;;1.57;1.47;;;;;15.10;95463.00;;;;5128063;28;20691;-61
2023/08/29 09:24:34;;;;;;;1.47;1.37;;;;;15.30;95462.00;;;;5131739;28;20601;-61
2023/08/29 09:27:05;;;;;;;1.73;1.63;;;;;15.30;95454.00;;;;5131631;28;20221;-61
2023/08/29 09:29:33;;;;;;;1.67;1.53;;;;;15.40;95463.00;;;;5127075;28;20531;-60
2023/08/29 09:32:11;;;;;;;1.23;1.20;;;;;15.60;95467.00;;;;5131487;28;20277;-59
2023/08/29 09:34:39;;;;;;;2.30;2.00;;;;;15.60;95472.00;;;;5132299;28;20186;-62
2023/08/29 09:37:07;;;;;;;2.10;2.00;;;;;15.60;95472.00;;;;5132161;28;20206;-61
2023/08/29 09:39:35;;;;;;;1.20;1.20;;;;;15.50;95470.00;;;;5132088;28;20194;-60
2023/08/29 09:42:06;;;;;;;1.67;1.57;;;;;15.40;95464.00;;;;5131786;28;20561;-62
2023/08/29 09:44:37;;;;;;;1.07;1.07;;;;;15.40;95452.00;;;;5131661;28;20194;-61
2023/08/29 09:47:05;;;;;;;3.07;2.50;;;;;15.40;95459.00;;;;5130323;28;20225;-61
2023/08/29 09:49:42;;;;;;;1.10;1.10;;;;;15.40;95459.00;;;;5132139;28;20198;-60
2023/08/29 09:52:10;;;;;;;1.30;1.30;;;;;15.40;95463.00;;;;5131426;28;20259;-60
2023/08/29 09:54:44;;;;;;;1.30;1.30;;;;;15.60;95466.00;;;;5130997;28;20199;-60
2023/08/29 09:57:15;;;;;;;2.20;1.73;;;;;15.60;95467.00;;;;5131708;28;20210;-60
2023/08/29 09:59:44;;;;;;;1.97;1.87;;;;;15.60;95468.00;;;;5131983;28;20190;-60
2023/08/29 10:02:13;;;;;;;1.90;1.80;;;;;15.60;95465.00;;;;5129990;28;20247;-60
2023/08/29 10:04:45;;;;;;;1.90;1.03;;;;;15.50;95469.00;;;;5129265;28;21034;-61
2023/08/29 10:07:16;;;;;;;2.43;2.23;;;;;15.40;95469.00;;;;5130862;28;20226;-60
2023/08/29 10:09:45;;;;;;;2.77;2.57;;;;;15.50;95468.00;;;;5132667;28;20197;-60
2023/08/29 10:12:14;;;;;;;1.47;1.47;;;;;15.50;95464.00;;;;5131496;28;20197;-60
2023/08/29 10:14:44;;;;;;;1.57;1.47;;;;;15.50;95472.00;;;;5131896;28;20691;-60
2023/08/29 10:17:13;;;;;;;2.27;1.83;;;;;15.60;95473.00;;;;5131458;28;20216;-61
2023/08/29 10:19:41;;;;;;;2.00;1.90;;;;;15.30;95467.00;;;;5134138;27;20190;-61
2023/08/29 10:22:11;;;;;;;1.17;1.17;;;;;15.30;95468.00;;;;5133969;27;20197;-61
2023/08/29 10:24:39;;;;;;;1.40;1.30;;;;;15.20;95471.00;;;;5130933;27;20299;-61
2023/08/29 10:27:07;;;;;;;2.07;1.97;;;;;15.20;95470.00;;;;5134616;27;20636;-61
2023/08/29 10:29:37;;;;;;;1.83;1.73;;;;;15.20;95466.00;;;;5134143;27;20255;-62
2023/08/29 10:32:06;;;;;;;1.73;1.63;;;;;15.20;95472.00;;;;5133334;27;20212;-62
2023/08/29 10:34:35;;;;;;;1.83;1.77;;;;;15.30;95463.00;;;;5135554;27;20193;-61
2023/08/29 10:37:04;;;;;;;5.00;2.27;;;;;15.30;95470.00;;;;5133448;27;20209;-62
2023/08/29 10:39:32;;;;;;;1.87;1.77;;;;;15.40;95471.00;;;;5135386;27;20696;-60
2023/08/29 10:42:00;;;;;;;5.10;2.60;;;;;15.60;95467.00;;;;5134626;27;20601;-60
2023/08/29 10:44:41;;;;;;;1.67;1.57;;;;;15.90;95474.00;;;;5134327;27;20238;-60
2023/08/29 10:47:16;;;;;;;3.57;1.90;;;;;16.00;95467.00;;;;5134391;27;20221;-60
2023/08/29 10:49:44;;;;;;;1.97;1.87;;;;;16.10;95462.00;;;;5133729;27;20258;-60
2023/08/29 10:52:13;;;;;;;1.77;1.67;;;;;16.20;95463.00;;;;5133034;27;20208;-60
2023/08/29 10:54:41;;;;;;;1.50;1.50;;;;;16.50;95453.00;;;;5135373;27;20219;-60
2023/08/29 10:57:28;;;;;;;1.57;1.47;;;;;16.60;95452.00;;;;5134423;27;20209;-60
2023/08/29 10:59:57;;;;;;;1.77;1.67;;;;;16.70;95459.00;;;;5132656;27;20253;-60
2023/08/29 11:02:27;;;;;;;1.70;1.60;;;;;16.90;95449.00;;;;5134429;27;20224;-59
2023/08/29 11:05:10;;;;;;;2.70;2.33;;;;;16.80;95447.00;;;;5134617;27;20216;-60
2023/08/29 11:07:38;;;;;;;1.57;1.47;;;;;16.80;95447.00;;;;5129831;27;20248;-60
2023/08/29 11:10:16;;;;;;;2.00;1.90;;;;;17.00;95441.00;;;;5130110;27;20728;-59
2023/08/29 11:13:02;;;;;;;1.60;1.50;;;;;17.20;95443.00;;;;5133963;27;20198;-60
2023/08/29 11:16:10;;;;;;;1.20;1.20;;;;;17.20;95447.00;;;;5134654;27;20556;-60
2023/08/29 11:18:37;;;;;;;2.00;1.90;;;;;17.40;95444.00;;;;5134450;27;20597;-60
2023/08/29 11:21:06;;;;;;;1.07;1.07;;;;;17.40;95447.00;;;;5134878;27;20204;-60
2023/08/29 11:23:38;;;;;;;2.03;1.93;;;;;17.30;95442.00;;;;5132563;27;20563;-60
2023/08/29 11:26:06;;;;;;;1.07;1.07;;;;;17.40;95439.00;;;;5129719;27;20219;-60
2023/08/29 11:28:34;;;;;;;1.33;1.33;;;;;17.30;95447.00;;;;5134175;27;20699;-60
2023/08/29 11:31:02;;;;;;;1.60;1.50;;;;;17.30;95444.00;;;;5133586;27;20193;-60
2023/08/29 11:33:34;;;;;;;1.10;1.10;;;;;17.10;95443.00;;;;5133850;27;20204;-60
2023/08/29 11:36:04;;;;;;;1.57;1.47;;;;;17.20;95438.00;;;;5133983;27;20217;-60
2023/08/29 11:38:33;;;;;;;1.17;1.17;;;;;17.20;95428.00;;;;5134244;27;20197;-60
2023/08/29 11:41:02;;;;;;;1.87;1.77;;;;;17.20;95434.00;;;;5133943;27;20280;-60
2023/08/29 11:43:32;;;;;;;1.60;1.50;;;;;17.10;95434.00;;;;5134376;27;20217;-60
2023/08/29 11:46:03;;;;;;;2.37;1.30;;;;;17.10;95435.00;;;;5133343;27;20232;-60
2023/08/29 11:48:33;;;;;;;2.03;1.83;;;;;17.20;95441.00;;;;5133755;27;20196;-60
2023/08/29 11:51:03;;;;;;;1.33;1.33;;;;;17.10;95439.00;;;;5133839;27;20197;-60
2023/08/29 11:53:32;;;;;;;1.23;1.23;;;;;17.00;95444.00;;;;5132721;27;20197;-60
2023/08/29 11:56:01;;;;;;;1.30;1.30;;;;;16.90;95441.00;;;;5133553;27;20221;-60
2023/08/29 11:58:29;;;;;;;1.33;1.33;;;;;16.90;95442.00;;;;5132721;27;20579;-60
2023/08/29 12:00:56;;;;;;;1.43;1.33;;;;;17.00;95446.00;;;;5133460;27;20201;-60
2023/08/29 12:03:26;;;;;;;1.27;1.27;;;;;17.00;95448.00;;;;5133374;27;20210;-61
2023/08/29 12:05:57;;;;;;;1.20;1.20;;;;;17.00;95451.00;;;;5133202;27;20737;-60
2023/08/29 12:08:36;;;;;;;1.50;1.40;;;;;16.90;95461.00;;;;5133824;27;20211;-60
2023/08/29 12:11:06;;;;;;;1.27;1.27;;;;;16.80;95452.00;;;;5129999;27;20193;-60
2023/08/29 12:13:34;;;;;;;1.30;1.30;;;;;16.70;95460.00;;;;5133631;27;20203;-60
2023/08/29 12:16:02;;;;;;;1.57;1.47;;;;;16.70;95463.00;;;;5131980;27;20213;-60
2023/08/29 12:18:32;;;;;;;1.57;1.47;;;;;16.60;95463.00;;;;5133266;27;20216;-60
2023/08/29 12:21:15;;;;;;;1.63;1.53;;;;;16.80;95454.00;;;;5132915;27;20280;-60
2023/08/29 12:23:44;;;;;;;1.73;1.63;;;;;16.60;95450.00;;;;5133150;27;20185;-60
2023/08/29 12:26:11;;;;;;;4.33;2.00;;;;;16.60;95469.00;;;;5132614;27;20209;-60